sensor_id;sensor_type;location;lat;lon;timestamp;pressure;altitude;pressure_sealevel;temperature;humidity
50636;BME280;36598;46.054;11.130;2023-02-21T00:00:05;99942.91;;;7.40;68.54
50636;BME280;36598;46.054;11.130;2023-02-21T00:02:49;99939.03;;;7.44;68.77
50636;BME280;36598;46.054;11.130;2023-02-21T00:05:33;99943.72;;;7.10;68.98
50636;BME280;36598;46.054;11.130;2023-02-21T00:08:17;99936.63;;;6.79;71.23
50636;BME280;36598;46.054;11.130;2023-02-21T00:11:01;99933.47;;;6.77;71.07
50636;BME280;36598;46.054;11.130;2023-02-21T00:13:45;99932.22;;;6.74;71.14
50636;BME280;36598;46.054;11.130;2023-02-21T00:16:29;99926.19;;;7.22;69.25
50636;BME280;36598;46.054;11.130;2023-02-21T00:19:13;99929.78;;;7.26;69.30
50636;BME280;36598;46.054;11.130;2023-02-21T00:21:57;99933.16;;;7.12;69.54
50636;BME280;36598;46.054;11.130;2023-02-21T00:24:41;99919.78;;;7.14;69.89
50636;BME280;36598;46.054;11.130;2023-02-21T00:27:24;99923.94;;;7.01;70.21
50636;BME280;36598;46.054;11.130;2023-02-21T00:30:09;99926.81;;;7.42;68.90
50636;BME280;36598;46.054;11.130;2023-02-21T00:32:53;99923.50;;;6.95;69.87
50636;BME280;36598;46.054;11.130;2023-02-21T00:35:37;99922.53;;;6.84;71.13
50636;BME280;36598;46.054;11.130;2023-02-21T00:38:21;99921.47;;;6.92;70.36
50636;BME280;36598;46.054;11.130;2023-02-21T00:41:05;99921.69;;;7.10;69.88
50636;BME280;36598;46.054;11.130;2023-02-21T00:43:48;99915.41;;;7.10;69.85
50636;BME280;36598;46.054;11.130;2023-02-21T00:46:32;99907.16;;;7.10;69.69
50636;BME280;36598;46.054;11.130;2023-02-21T00:49:16;99910.28;;;7.08;69.39
50636;BME280;36598;46.054;11.130;2023-02-21T00:52:00;99913.22;;;7.22;69.37
50636;BME280;36598;46.054;11.130;2023-02-21T00:54:44;99904.84;;;7.12;69.48
50636;BME280;36598;46.054;11.130;2023-02-21T00:57:28;99902.44;;;7.10;69.29
50636;BME280;36598;46.054;11.130;2023-02-21T01:00:20;99904.75;;;7.05;69.79
50636;BME280;36598;46.054;11.130;2023-02-21T01:03:04;99909.13;;;7.09;69.42
50636;BME280;36598;46.054;11.130;2023-02-21T01:05:48;99904.03;;;7.11;69.22
50636;BME280;36598;46.054;11.130;2023-02-21T01:08:31;99917.78;;;6.28;71.92
50636;BME280;36598;46.054;11.130;2023-02-21T01:11:16;99908.16;;;6.68;71.18
50636;BME280;36598;46.054;11.130;2023-02-21T01:14:00;99911.47;;;6.81;70.54
50636;BME280;36598;46.054;11.130;2023-02-21T01:16:44;99901.53;;;6.99;69.95
50636;BME280;36598;46.054;11.130;2023-02-21T01:19:28;99902.13;;;6.85;69.83
50636;BME280;36598;46.054;11.130;2023-02-21T01:22:12;99899.66;;;7.07;69.03
50636;BME280;36598;46.054;11.130;2023-02-21T01:24:56;99901.47;;;6.65;70.42
50636;BME280;36598;46.054;11.130;2023-02-21T01:27:40;99897.91;;;6.65;70.68
50636;BME280;36598;46.054;11.130;2023-02-21T01:30:23;99899.97;;;6.45;71.56
50636;BME280;36598;46.054;11.130;2023-02-21T01:33:07;99906.25;;;6.19;72.85
50636;BME280;36598;46.054;11.130;2023-02-21T01:35:51;99904.66;;;5.95;73.50
50636;BME280;36598;46.054;11.130;2023-02-21T01:38:35;99898.84;;;6.23;72.77
50636;BME280;36598;46.054;11.130;2023-02-21T01:41:19;99893.81;;;6.55;70.89
50636;BME280;36598;46.054;11.130;2023-02-21T01:44:27;99890.34;;;6.58;71.05
50636;BME280;36598;46.054;11.130;2023-02-21T01:47:10;99889.19;;;6.59;69.85
50636;BME280;36598;46.054;11.130;2023-02-21T01:49:54;99885.69;;;6.62;69.80
50636;BME280;36598;46.054;11.130;2023-02-21T01:52:38;99885.22;;;6.57;69.96
50636;BME280;36598;46.054;11.130;2023-02-21T01:55:22;99875.97;;;6.15;71.71
50636;BME280;36598;46.054;11.130;2023-02-21T01:58:06;99886.47;;;5.87;72.47
50636;BME280;36598;46.054;11.130;2023-02-21T02:00:50;99867.38;;;6.17;71.49
50636;BME280;36598;46.054;11.130;2023-02-21T02:03:34;99872.34;;;6.11;72.17
50636;BME280;36598;46.054;11.130;2023-02-21T02:06:20;99869.59;;;6.11;71.56
50636;BME280;36598;46.054;11.130;2023-02-21T02:09:16;99858.69;;;6.41;70.45
50636;BME280;36598;46.054;11.130;2023-02-21T02:12:07;99866.94;;;6.41;70.24
50636;BME280;36598;46.054;11.130;2023-02-21T02:25:07;99846.50;;;6.39;69.73
50636;BME280;36598;46.054;11.130;2023-02-21T02:27:50;99844.66;;;6.50;69.25
50636;BME280;36598;46.054;11.130;2023-02-21T02:32:57;99855.16;;;6.41;69.42
50636;BME280;36598;46.054;11.130;2023-02-21T02:35:31;99842.13;;;6.38;70.04
50636;BME280;36598;46.054;11.130;2023-02-21T02:43:16;99841.53;;;5.98;70.68
50636;BME280;36598;46.054;11.130;2023-02-21T02:45:55;99835.22;;;6.21;69.92
50636;BME280;36598;46.054;11.130;2023-02-21T02:48:24;99845.25;;;5.64;71.56
50636;BME280;36598;46.054;11.130;2023-02-21T02:50:50;99842.00;;;5.81;70.83
50636;BME280;36598;46.054;11.130;2023-02-21T02:53:20;99847.50;;;5.81;69.99
50636;BME280;36598;46.054;11.130;2023-02-21T02:55:56;99840.38;;;5.76;70.58
50636;BME280;36598;46.054;11.130;2023-02-21T02:58:22;99840.00;;;5.78;70.71
50636;BME280;36598;46.054;11.130;2023-02-21T03:01:03;99845.84;;;5.96;70.60
50636;BME280;36598;46.054;11.130;2023-02-21T03:06:10;99835.00;;;6.07;70.09
50636;BME280;36598;46.054;11.130;2023-02-21T03:11:08;99843.19;;;5.80;70.94
50636;BME280;36598;46.054;11.130;2023-02-21T03:18:35;99841.47;;;6.18;69.55
50636;BME280;36598;46.054;11.130;2023-02-21T03:21:04;99849.63;;;5.68;71.34
50636;BME280;36598;46.054;11.130;2023-02-21T03:23:33;99845.47;;;5.78;71.00
50636;BME280;36598;46.054;11.130;2023-02-21T03:26:05;99837.53;;;5.27;72.50
50636;BME280;36598;46.054;11.130;2023-02-21T03:28:32;99831.31;;;5.30;72.89
50636;BME280;36598;46.054;11.130;2023-02-21T03:30:58;99836.84;;;5.53;71.62
50636;BME280;36598;46.054;11.130;2023-02-21T03:33:24;99826.38;;;5.39;71.78
50636;BME280;36598;46.054;11.130;2023-02-21T03:35:49;99820.31;;;5.49;72.20
50636;BME280;36598;46.054;11.130;2023-02-21T03:38:14;99814.09;;;5.52;71.56
50636;BME280;36598;46.054;11.130;2023-02-21T03:40:40;99805.25;;;5.20;72.88
50636;BME280;36598;46.054;11.130;2023-02-21T03:43:05;99809.66;;;5.48;72.04
50636;BME280;36598;46.054;11.130;2023-02-21T03:45:33;99802.81;;;5.58;71.33
50636;BME280;36598;46.054;11.130;2023-02-21T03:47:59;99798.63;;;5.67;70.83
50636;BME280;36598;46.054;11.130;2023-02-21T03:50:24;99797.53;;;5.72;69.89
50636;BME280;36598;46.054;11.130;2023-02-21T03:52:50;99800.75;;;5.77;70.10
50636;BME280;36598;46.054;11.130;2023-02-21T03:55:15;99807.53;;;5.84;69.38
50636;BME280;36598;46.054;11.130;2023-02-21T03:57:41;99803.88;;;5.76;69.07
50636;BME280;36598;46.054;11.130;2023-02-21T04:00:06;99807.53;;;5.38;71.10
50636;BME280;36598;46.054;11.130;2023-02-21T04:02:32;99812.16;;;5.34;70.98
50636;BME280;36598;46.054;11.130;2023-02-21T04:04:57;99809.88;;;5.36;71.02
50636;BME280;36598;46.054;11.130;2023-02-21T04:07:22;99801.69;;;5.62;70.59
50636;BME280;36598;46.054;11.130;2023-02-21T04:09:48;99801.31;;;5.64;70.22
50636;BME280;36598;46.054;11.130;2023-02-21T04:12:13;99792.75;;;5.65;69.92
50636;BME280;36598;46.054;11.130;2023-02-21T04:14:39;99796.75;;;5.71;69.43
50636;BME280;36598;46.054;11.130;2023-02-21T04:17:05;99803.47;;;5.09;71.54
50636;BME280;36598;46.054;11.130;2023-02-21T04:19:30;99801.91;;;5.31;70.96
50636;BME280;36598;46.054;11.130;2023-02-21T04:21:55;99808.09;;;5.05;71.52
50636;BME280;36598;46.054;11.130;2023-02-21T04:24:20;99799.97;;;4.89;72.29
50636;BME280;36598;46.054;11.130;2023-02-21T04:26:46;99803.72;;;4.81;72.46
50636;BME280;36598;46.054;11.130;2023-02-21T04:29:11;99797.41;;;5.19;71.27
50636;BME280;36598;46.054;11.130;2023-02-21T04:31:36;99803.00;;;5.26;71.28
50636;BME280;36598;46.054;11.130;2023-02-21T04:34:02;99797.03;;;5.01;72.07
50636;BME280;36598;46.054;11.130;2023-02-21T04:36:27;99798.19;;;5.19;71.70
50636;BME280;36598;46.054;11.130;2023-02-21T04:38:52;99790.94;;;4.69;73.43
50636;BME280;36598;46.054;11.130;2023-02-21T04:41:18;99794.22;;;5.17;71.81
50636;BME280;36598;46.054;11.130;2023-02-21T04:43:44;99797.09;;;5.24;71.26
50636;BME280;36598;46.054;11.130;2023-02-21T04:46:10;99791.38;;;5.33;70.69
50636;BME280;36598;46.054;11.130;2023-02-21T04:48:35;99795.13;;;5.44;70.54
50636;BME280;36598;46.054;11.130;2023-02-21T04:51:00;99793.47;;;4.77;72.24
50636;BME280;36598;46.054;11.130;2023-02-21T04:53:26;99789.44;;;4.71;72.96
50636;BME280;36598;46.054;11.130;2023-02-21T04:55:51;99791.63;;;5.05;71.56
50636;BME280;36598;46.054;11.130;2023-02-21T04:58:16;99792.38;;;5.01;71.74
50636;BME280;36598;46.054;11.130;2023-02-21T05:03:17;99786.28;;;5.12;71.50
50636;BME280;36598;46.054;11.130;2023-02-21T05:05:42;99794.22;;;5.17;70.38
50636;BME280;36598;46.054;11.130;2023-02-21T05:08:08;99791.28;;;5.06;71.06
50636;BME280;36598;46.054;11.130;2023-02-21T05:10:33;99798.09;;;4.93;71.80
50636;BME280;36598;46.054;11.130;2023-02-21T05:12:58;99795.16;;;5.24;70.80
50636;BME280;36598;46.054;11.130;2023-02-21T05:15:24;99788.19;;;5.31;70.15
50636;BME280;36598;46.054;11.130;2023-02-21T05:17:49;99782.72;;;5.31;69.95
50636;BME280;36598;46.054;11.130;2023-02-21T05:20:15;99785.63;;;4.76;72.34
50636;BME280;36598;46.054;11.130;2023-02-21T05:22:40;99785.97;;;4.94;71.70
50636;BME280;36598;46.054;11.130;2023-02-21T05:25:13;99772.94;;;5.10;70.67
50636;BME280;36598;46.054;11.130;2023-02-21T05:27:38;99775.72;;;5.14;70.76
50636;BME280;36598;46.054;11.130;2023-02-21T05:30:04;99776.88;;;5.32;69.85
50636;BME280;36598;46.054;11.130;2023-02-21T05:32:29;99767.31;;;5.22;70.85
50636;BME280;36598;46.054;11.130;2023-02-21T05:34:55;99766.94;;;5.24;70.13
50636;BME280;36598;46.054;11.130;2023-02-21T05:37:20;99760.72;;;4.85;71.07
50636;BME280;36598;46.054;11.130;2023-02-21T05:39:46;99757.13;;;4.81;71.34
50636;BME280;36598;46.054;11.130;2023-02-21T05:42:11;99753.66;;;4.64;71.82
50636;BME280;36598;46.054;11.130;2023-02-21T05:44:36;99765.63;;;4.75;71.31
50636;BME280;36598;46.054;11.130;2023-02-21T05:47:02;99765.13;;;4.89;70.80
50636;BME280;36598;46.054;11.130;2023-02-21T05:49:27;99771.38;;;4.70;71.66
50636;BME280;36598;46.054;11.130;2023-02-21T05:51:53;99770.19;;;4.13;73.42
50636;BME280;36598;46.054;11.130;2023-02-21T05:54:18;99760.97;;;4.21;73.33
50636;BME280;36598;46.054;11.130;2023-02-21T05:56:46;99755.75;;;3.97;73.37
50636;BME280;36598;46.054;11.130;2023-02-21T05:59:12;99763.47;;;4.46;72.02
50636;BME280;36598;46.054;11.130;2023-02-21T06:01:37;99760.94;;;4.57;71.52
50636;BME280;36598;46.054;11.130;2023-02-21T06:04:03;99774.66;;;4.76;70.46
50636;BME280;36598;46.054;11.130;2023-02-21T06:06:29;99766.13;;;4.81;70.36
50636;BME280;36598;46.054;11.130;2023-02-21T06:08:54;99768.72;;;4.35;72.73
50636;BME280;36598;46.054;11.130;2023-02-21T06:11:23;99765.63;;;4.56;71.91
50636;BME280;36598;46.054;11.130;2023-02-21T06:13:49;99758.09;;;4.92;70.73
50636;BME280;36598;46.054;11.130;2023-02-21T06:16:15;99770.59;;;4.70;71.10
50636;BME280;36598;46.054;11.130;2023-02-21T06:18:40;99773.25;;;4.66;71.41
50636;BME280;36598;46.054;11.130;2023-02-21T06:21:05;99773.53;;;4.22;73.00
50636;BME280;36598;46.054;11.130;2023-02-21T06:23:31;99775.59;;;4.10;73.67
50636;BME280;36598;46.054;11.130;2023-02-21T06:25:56;99781.50;;;4.12;73.79
50636;BME280;36598;46.054;11.130;2023-02-21T06:28:25;99783.84;;;4.48;72.65
50636;BME280;36598;46.054;11.130;2023-02-21T06:30:51;99795.91;;;4.44;72.83
50636;BME280;36598;46.054;11.130;2023-02-21T06:33:16;99789.78;;;4.70;71.88
50636;BME280;36598;46.054;11.130;2023-02-21T06:35:41;99795.50;;;4.81;71.60
50636;BME280;36598;46.054;11.130;2023-02-21T06:38:07;99796.13;;;4.93;70.35
50636;BME280;36598;46.054;11.130;2023-02-21T06:40:32;99797.03;;;5.01;70.24
50636;BME280;36598;46.054;11.130;2023-02-21T06:42:57;99796.72;;;4.64;71.29
50636;BME280;36598;46.054;11.130;2023-02-21T06:45:22;99793.75;;;4.92;70.95
50636;BME280;36598;46.054;11.130;2023-02-21T06:47:48;99792.94;;;4.91;70.50
50636;BME280;36598;46.054;11.130;2023-02-21T06:50:13;99796.38;;;4.85;70.50
50636;BME280;36598;46.054;11.130;2023-02-21T06:52:38;99799.84;;;5.24;69.55
50636;BME280;36598;46.054;11.130;2023-02-21T06:55:04;99797.41;;;4.99;70.13
50636;BME280;36598;46.054;11.130;2023-02-21T06:57:29;99801.41;;;4.83;70.65
50636;BME280;36598;46.054;11.130;2023-02-21T06:59:54;99803.56;;;4.93;70.57
50636;BME280;36598;46.054;11.130;2023-02-21T07:02:20;99808.53;;;4.87;70.59
50636;BME280;36598;46.054;11.130;2023-02-21T07:04:45;99801.47;;;4.47;71.96
50636;BME280;36598;46.054;11.130;2023-02-21T07:07:11;99806.16;;;4.66;71.62
50636;BME280;36598;46.054;11.130;2023-02-21T07:09:36;99806.00;;;4.78;71.90
50636;BME280;36598;46.054;11.130;2023-02-21T07:12:01;99805.16;;;4.94;70.49
50636;BME280;36598;46.054;11.130;2023-02-21T07:14:28;99805.88;;;5.33;69.91
50636;BME280;36598;46.054;11.130;2023-02-21T07:16:53;99800.03;;;5.35;68.97
50636;BME280;36598;46.054;11.130;2023-02-21T07:19:18;99801.75;;;5.66;68.07
50636;BME280;36598;46.054;11.130;2023-02-21T07:21:44;99802.88;;;5.61;68.51
50636;BME280;36598;46.054;11.130;2023-02-21T07:24:09;99799.56;;;5.75;68.08
50636;BME280;36598;46.054;11.130;2023-02-21T07:26:35;99798.19;;;5.88;67.65
50636;BME280;36598;46.054;11.130;2023-02-21T07:29:02;99799.38;;;5.87;67.39
50636;BME280;36598;46.054;11.130;2023-02-21T07:31:27;99815.25;;;5.74;68.35
50636;BME280;36598;46.054;11.130;2023-02-21T07:33:53;99803.63;;;5.85;67.38
50636;BME280;36598;46.054;11.130;2023-02-21T07:36:18;99804.25;;;5.74;67.72
50636;BME280;36598;46.054;11.130;2023-02-21T07:38:43;99800.66;;;5.93;66.99
50636;BME280;36598;46.054;11.130;2023-02-21T07:41:08;99801.22;;;6.33;65.89
50636;BME280;36598;46.054;11.130;2023-02-21T07:43:34;99803.13;;;6.28;66.21
50636;BME280;36598;46.054;11.130;2023-02-21T07:45:59;99805.13;;;6.58;65.60
50636;BME280;36598;46.054;11.130;2023-02-21T07:48:25;99804.63;;;6.22;66.58
50636;BME280;36598;46.054;11.130;2023-02-21T07:50:50;99802.88;;;6.67;65.12
50636;BME280;36598;46.054;11.130;2023-02-21T07:53:16;99807.09;;;6.91;63.88
50636;BME280;36598;46.054;11.130;2023-02-21T07:55:41;99811.97;;;7.05;63.62
50636;BME280;36598;46.054;11.130;2023-02-21T07:58:06;99809.56;;;7.00;63.42
50636;BME280;36598;46.054;11.130;2023-02-21T08:00:32;99816.75;;;10.21;55.85
50636;BME280;36598;46.054;11.130;2023-02-21T08:02:57;99795.31;;;16.49;39.44
50636;BME280;36598;46.054;11.130;2023-02-21T08:05:23;99793.41;;;20.46;32.19
50636;BME280;36598;46.054;11.130;2023-02-21T08:07:48;99793.09;;;22.41;28.23
50636;BME280;36598;46.054;11.130;2023-02-21T08:10:18;99793.31;;;21.38;28.21
50636;BME280;36598;46.054;11.130;2023-02-21T08:12:44;99796.56;;;23.48;25.51
50636;BME280;36598;46.054;11.130;2023-02-21T08:15:09;99791.91;;;26.63;22.21
50636;BME280;36598;46.054;11.130;2023-02-21T08:17:34;99798.72;;;27.61;20.67
50636;BME280;36598;46.054;11.130;2023-02-21T08:19:59;99794.19;;;28.86;19.64
50636;BME280;36598;46.054;11.130;2023-02-21T08:22:25;99788.19;;;30.10;17.75
50636;BME280;36598;46.054;11.130;2023-02-21T08:24:50;99788.88;;;30.22;17.37
50636;BME280;36598;46.054;11.130;2023-02-21T08:27:16;99794.25;;;29.16;18.29
50636;BME280;36598;46.054;11.130;2023-02-21T08:29:41;99783.50;;;30.37;17.20
50636;BME280;36598;46.054;11.130;2023-02-21T08:32:06;99784.50;;;30.39;16.98
50636;BME280;36598;46.054;11.130;2023-02-21T08:34:32;99780.31;;;31.48;16.01
50636;BME280;36598;46.054;11.130;2023-02-21T08:36:58;99772.25;;;31.47;15.84
50636;BME280;36598;46.054;11.130;2023-02-21T08:39:23;99773.53;;;32.78;14.59
50636;BME280;36598;46.054;11.130;2023-02-21T08:41:48;99782.31;;;32.33;15.20
50636;BME280;36598;46.054;11.130;2023-02-21T08:44:15;99766.78;;;34.74;13.44
50636;BME280;36598;46.054;11.130;2023-02-21T08:46:41;99768.59;;;33.83;13.85
50636;BME280;36598;46.054;11.130;2023-02-21T08:49:07;99764.59;;;34.51;13.53
50636;BME280;36598;46.054;11.130;2023-02-21T08:51:32;99768.63;;;34.48;13.45
50636;BME280;36598;46.054;11.130;2023-02-21T08:53:58;99765.91;;;34.50;13.67
50636;BME280;36598;46.054;11.130;2023-02-21T08:56:24;99764.78;;;33.18;14.15
50636;BME280;36598;46.054;11.130;2023-02-21T08:58:49;99760.63;;;34.70;13.31
50636;BME280;36598;46.054;11.130;2023-02-21T09:01:15;99752.13;;;34.49;13.65
50636;BME280;36598;46.054;11.130;2023-02-21T09:03:40;99754.44;;;34.14;14.15
50636;BME280;36598;46.054;11.130;2023-02-21T09:06:06;99752.44;;;33.02;14.27
50636;BME280;36598;46.054;11.130;2023-02-21T09:08:31;99747.16;;;34.49;13.66
50636;BME280;36598;46.054;11.130;2023-02-21T09:10:57;99747.31;;;32.27;15.32
50636;BME280;36598;46.054;11.130;2023-02-21T09:13:26;99742.50;;;34.98;13.00
50636;BME280;36598;46.054;11.130;2023-02-21T09:15:51;99745.97;;;34.01;13.60
50636;BME280;36598;46.054;11.130;2023-02-21T09:18:16;99749.66;;;34.17;13.59
50636;BME280;36598;46.054;11.130;2023-02-21T09:20:41;99738.47;;;33.69;13.93
50636;BME280;36598;46.054;11.130;2023-02-21T09:23:07;99741.00;;;35.35;12.80
50636;BME280;36598;46.054;11.130;2023-02-21T09:25:33;99735.81;;;35.33;12.80
50636;BME280;36598;46.054;11.130;2023-02-21T09:27:58;99729.84;;;35.16;12.57
50636;BME280;36598;46.054;11.130;2023-02-21T09:30:26;99725.81;;;34.37;12.94
50636;BME280;36598;46.054;11.130;2023-02-21T09:32:53;99728.72;;;33.72;14.29
50636;BME280;36598;46.054;11.130;2023-02-21T09:35:19;99717.88;;;34.14;13.25
50636;BME280;36598;46.054;11.130;2023-02-21T09:37:44;99711.97;;;34.72;12.95
50636;BME280;36598;46.054;11.130;2023-02-21T09:42:48;99720.09;;;33.02;14.20
50636;BME280;36598;46.054;11.130;2023-02-21T09:45:15;99708.41;;;33.70;13.39
50636;BME280;36598;46.054;11.130;2023-02-21T09:47:41;99706.09;;;31.96;15.43
50636;BME280;36598;46.054;11.130;2023-02-21T09:50:11;99705.84;;;32.54;14.86
50636;BME280;36598;46.054;11.130;2023-02-21T09:52:37;99705.59;;;32.18;15.08
50636;BME280;36598;46.054;11.130;2023-02-21T09:55:10;99692.06;;;33.86;13.79
50636;BME280;36598;46.054;11.130;2023-02-21T09:57:38;99698.97;;;32.23;14.86
50636;BME280;36598;46.054;11.130;2023-02-21T10:10:44;99687.91;;;32.54;14.76
50636;BME280;36598;46.054;11.130;2023-02-21T10:16:14;99675.50;;;33.63;14.23
50636;BME280;36598;46.054;11.130;2023-02-21T10:21:51;99672.31;;;36.83;11.43
50636;BME280;36598;46.054;11.130;2023-02-21T10:23:52;99676.69;;;32.77;14.53
50636;BME280;36598;46.054;11.130;2023-02-21T10:26:25;99669.53;;;36.02;11.96
50636;BME280;36598;46.054;11.130;2023-02-21T10:28:52;99667.72;;;34.82;12.71
50636;BME280;36598;46.054;11.130;2023-02-21T10:31:31;99664.88;;;33.79;13.30
50636;BME280;36598;46.054;11.130;2023-02-21T10:33:58;99656.03;;;35.11;12.41
50636;BME280;36598;46.054;11.130;2023-02-21T10:36:24;99661.97;;;32.38;14.61
50636;BME280;36598;46.054;11.130;2023-02-21T10:38:54;99652.94;;;30.88;15.92
50636;BME280;36598;46.054;11.130;2023-02-21T10:41:21;99647.50;;;32.44;14.63
50636;BME280;36598;46.054;11.130;2023-02-21T10:43:47;99639.41;;;33.76;14.12
50636;BME280;36598;46.054;11.130;2023-02-21T10:46:17;99644.88;;;32.88;14.63
50636;BME280;36598;46.054;11.130;2023-02-21T10:48:44;99643.16;;;33.34;13.86
50636;BME280;36598;46.054;11.130;2023-02-21T10:51:11;99638.19;;;31.43;15.43
50636;BME280;36598;46.054;11.130;2023-02-21T10:53:38;99631.06;;;30.59;16.59
50636;BME280;36598;46.054;11.130;2023-02-21T11:03:50;99617.88;;;32.41;14.49
50636;BME280;36598;46.054;11.130;2023-02-21T11:06:35;99604.34;;;33.62;13.68
50636;BME280;36598;46.054;11.130;2023-02-21T11:09:01;99599.81;;;32.47;15.03
50636;BME280;36598;46.054;11.130;2023-02-21T11:11:46;99588.22;;;32.94;13.90
50636;BME280;36598;46.054;11.130;2023-02-21T11:14:19;99588.47;;;32.41;14.90
50636;BME280;36598;46.054;11.130;2023-02-21T11:16:49;99572.38;;;34.09;13.25
50636;BME280;36598;46.054;11.130;2023-02-21T11:19:28;99571.59;;;34.01;13.32
50636;BME280;36598;46.054;11.130;2023-02-21T11:22:05;99562.81;;;32.35;14.69
50636;BME280;36598;46.054;11.130;2023-02-21T11:24:33;99564.00;;;31.85;15.39
50636;BME280;36598;46.054;11.130;2023-02-21T11:26:58;99546.75;;;32.95;14.69
50636;BME280;36598;46.054;11.130;2023-02-21T11:29:24;99551.59;;;32.03;15.22
50636;BME280;36598;46.054;11.130;2023-02-21T11:31:54;99541.63;;;31.09;15.68
50636;BME280;36598;46.054;11.130;2023-02-21T11:34:19;99536.06;;;30.26;16.63
50636;BME280;36598;46.054;11.130;2023-02-21T11:36:45;99521.59;;;29.49;17.19
50636;BME280;36598;46.054;11.130;2023-02-21T11:39:15;99519.53;;;25.42;20.87
50636;BME280;36598;46.054;11.130;2023-02-21T11:41:52;99516.53;;;26.97;19.77
50636;BME280;36598;46.054;11.130;2023-02-21T11:44:22;99509.22;;;30.48;16.87
50636;BME280;36598;46.054;11.130;2023-02-21T11:46:47;99509.88;;;26.78;20.08
50636;BME280;36598;46.054;11.130;2023-02-21T11:51:45;99492.53;;;26.98;20.01
50636;BME280;36598;46.054;11.130;2023-02-21T11:54:10;99494.13;;;25.70;21.27
50636;BME280;36598;46.054;11.130;2023-02-21T11:59:24;99485.97;;;24.06;22.93
50636;BME280;36598;46.054;11.130;2023-02-21T12:07:10;99457.50;;;24.90;22.07
50636;BME280;36598;46.054;11.130;2023-02-21T12:12:35;99445.53;;;23.42;23.38
50636;BME280;36598;46.054;11.130;2023-02-21T12:17:53;99442.41;;;19.17;28.80
50636;BME280;36598;46.054;11.130;2023-02-21T12:23:06;99441.81;;;18.45;30.23
50636;BME280;36598;46.054;11.130;2023-02-21T12:28:32;99424.31;;;17.83;31.67
50636;BME280;36598;46.054;11.130;2023-02-21T12:31:19;99417.63;;;18.20;31.99
50636;BME280;36598;46.054;11.130;2023-02-21T12:46:25;99400.53;;;18.37;32.65
50636;BME280;36598;46.054;11.130;2023-02-21T12:51:21;99399.25;;;18.19;33.32
50636;BME280;36598;46.054;11.130;2023-02-21T12:56:27;99391.69;;;17.98;33.44
50636;BME280;36598;46.054;11.130;2023-02-21T13:01:46;99383.25;;;17.89;33.80
50636;BME280;36598;46.054;11.130;2023-02-21T13:06:42;99371.78;;;17.96;34.03
50636;BME280;36598;46.054;11.130;2023-02-21T13:12:05;99360.59;;;19.10;32.23
50636;BME280;36598;46.054;11.130;2023-02-21T13:17:09;99352.19;;;19.00;31.83
50636;BME280;36598;46.054;11.130;2023-02-21T13:20:17;99347.97;;;19.23;31.55
50636;BME280;36598;46.054;11.130;2023-02-21T13:28:03;99352.34;;;17.92;34.65
50636;BME280;36598;46.054;11.130;2023-02-21T13:32:57;99340.69;;;18.98;32.93
50636;BME280;36598;46.054;11.130;2023-02-21T13:35:36;99340.97;;;19.19;32.25
50636;BME280;36598;46.054;11.130;2023-02-21T13:38:06;99331.91;;;19.24;32.30
50636;BME280;36598;46.054;11.130;2023-02-21T13:40:45;99329.69;;;19.37;32.29
50636;BME280;36598;46.054;11.130;2023-02-21T13:45:42;99328.69;;;19.59;32.12
50636;BME280;36598;46.054;11.130;2023-02-21T13:48:15;99325.22;;;19.73;31.38
50636;BME280;36598;46.054;11.130;2023-02-21T13:50:48;99302.81;;;19.64;31.69
50636;BME280;36598;46.054;11.130;2023-02-21T13:55:49;99309.69;;;19.02;35.14
50636;BME280;36598;46.054;11.130;2023-02-21T14:00:54;99296.91;;;18.46;37.35
50636;BME280;36598;46.054;11.130;2023-02-21T14:10:58;99287.25;;;17.70;39.13
50636;BME280;36598;46.054;11.130;2023-02-21T14:13:38;99287.69;;;17.28;40.11
50636;BME280;36598;46.054;11.130;2023-02-21T14:21:49;99279.16;;;18.40;37.17
50636;BME280;36598;46.054;11.130;2023-02-21T14:23:51;99274.78;;;18.66;36.38
50636;BME280;36598;46.054;11.130;2023-02-21T14:29:09;99283.34;;;18.26;36.93
50636;BME280;36598;46.054;11.130;2023-02-21T14:34:10;99284.69;;;17.94;37.83
50636;BME280;36598;46.054;11.130;2023-02-21T14:36:36;99278.56;;;17.77;38.24
50636;BME280;36598;46.054;11.130;2023-02-21T14:39:02;99273.31;;;17.79;38.95
50636;BME280;36598;46.054;11.130;2023-02-21T14:41:49;99277.09;;;17.63;38.98
50636;BME280;36598;46.054;11.130;2023-02-21T14:47:10;99282.25;;;17.34;39.69
50636;BME280;36598;46.054;11.130;2023-02-21T15:05:20;99277.88;;;16.92;42.41
50636;BME280;36598;46.054;11.130;2023-02-21T15:10:17;99269.56;;;16.45;43.05
50636;BME280;36598;46.054;11.130;2023-02-21T15:12:55;99282.28;;;16.46;43.16
50636;BME280;36598;46.054;11.130;2023-02-21T15:18:06;99288.22;;;16.00;44.76
50636;BME280;36598;46.054;11.130;2023-02-21T15:20:33;99283.34;;;15.66;45.63
50636;BME280;36598;46.054;11.130;2023-02-21T15:25:33;99290.00;;;15.18;47.22
50636;BME280;36598;46.054;11.130;2023-02-21T15:27:59;99286.56;;;15.26;47.32
50636;BME280;36598;46.054;11.130;2023-02-21T15:30:35;99286.09;;;14.61;48.98
50636;BME280;36598;46.054;11.130;2023-02-21T15:35:40;99284.53;;;14.72;48.63
50636;BME280;36598;46.054;11.130;2023-02-21T15:38:12;99287.13;;;14.50;49.48
50636;BME280;36598;46.054;11.130;2023-02-21T15:40:38;99300.09;;;14.57;49.86
50636;BME280;36598;46.054;11.130;2023-02-21T15:43:04;99296.13;;;14.25;50.13
50636;BME280;36598;46.054;11.130;2023-02-21T15:45:31;99297.78;;;13.74;52.23
50636;BME280;36598;46.054;11.130;2023-02-21T15:47:58;99302.41;;;13.64;52.79
50636;BME280;36598;46.054;11.130;2023-02-21T15:52:53;99305.06;;;13.51;53.21
50636;BME280;36598;46.054;11.130;2023-02-21T16:00:34;99319.53;;;13.26;54.18
50636;BME280;36598;46.054;11.130;2023-02-21T16:05:44;99319.09;;;12.88;56.32
50636;BME280;36598;46.054;11.130;2023-02-21T16:08:11;99319.22;;;12.61;56.69
50636;BME280;36598;46.054;11.130;2023-02-21T16:10:38;99327.78;;;12.70;57.36